Borden, Texas
Current Conditions -  °F | °C
As of 1:15 AM on Monday 26 Jan 2015 (Local Time) from K66R Reporting Station
Clear Clear  
Wind Chill: 41°   Ceiling: Unl
Heat Index: 44°   Visibility: 10mi
Dew Point: 35°   Wind: 6mph
Humidity: 72%   Direction: 250°WSW
Pressure: 30.18"   Gusts: NA
Location:  29.6229°N, 96.7031°W
Report Text: K66R 260715Z AUTO 25005KT 10SM CLR 07/02 A3018 RMK AO2 T00670019
Loading
Personal Weather Stations






























Interactive Weather Map New forecast layout! Learn more

10-Day Weather Forecast

Advertisements
Track Severe Weather on mobile